Hoytville, Ohio
Current Conditions -  °F | °C
As of 6:53 PM on Sunday 23 Nov 2014 (Local Time) from KFDY Reporting Station
Light Rain Light Rain  
Wind Chill: 14°   Ceiling: 10000
Heat Index: 14°   Visibility: 10mi
Dew Point:   Wind: 18mph
Humidity: 62%   Direction: 130°SE
Pressure: 29.51"   Gusts: 29mph
Location:  41.19°N, 83.78°W
Report Text: KFDY 232353Z AUTO 13016G25KT 10SM -RA OVC100 14/07 A2951 RMK AO2 SLP989 P0000 60000 T01390067 10161 20139 58049
Loading
Personal Weather Stations






























Interactive Weather Map New forecast layout! Learn more

10-Day Weather Forecast

Advertisements
Track Severe Weather on mobile